Time;durP1;ratioP1;P1;durP2;ratioP2;P2;SDS_P1;SDS_P2;PMS_P1;PMS_P2;Temp;Humidity;BMP_temperature;BMP_pressure;BME280_temperature;BME280_humidity;BME280_pressure;Samples;Min_cycle;Max_cycle;Signal;HPM_P1;HPM_P2
2022/04/09 00:00:30;;;;;;;;;;;;;;;5.73;86.03;99567.70;1791224;79;20194;-57
2022/04/09 00:03:36;;;;;;;;;;;;;;;5.70;85.97;99564.45;1794454;80;20233;-57
2022/04/09 00:06:44;;;;;;;;;;;;;;;5.64;85.88;99565.98;1794393;80;20241;-56
2022/04/09 00:09:50;;;;;;;;;;;;;;;5.59;85.81;99570.19;1794355;80;20265;-56
2022/04/09 00:12:56;;;;;;;;;;;;;;;5.53;85.79;99576.28;1794415;80;20178;-57
2022/04/09 00:16:02;;;;;;;;;;;;;;;5.49;85.73;99581.67;1794439;80;20186;-56
2022/04/09 00:19:09;;;;;;;;;;;;;;;5.42;85.49;99582.00;1794393;80;20194;-58
2022/04/09 00:22:13;;;;;;;;;;;;;;;5.37;85.49;99581.64;1794503;80;20202;-58
2022/04/09 00:25:24;;;;;;;;;;;;;;;5.37;85.89;99596.56;1773653;80;20522;-57
2022/04/09 00:28:29;;;;;;;;;;;;;;;5.40;86.02;99587.59;1794515;80;20198;-56
2022/04/09 00:31:36;;;;;;;;;;;;;;;5.43;85.99;99587.77;1794457;80;20242;-57
2022/04/09 00:34:42;;;;;;;;;;;;;;;5.47;86.03;99595.41;1794370;80;20252;-57
2022/04/09 00:37:51;;;;;;;;;;;;;;;5.50;86.01;99592.90;1794485;80;20273;-56
2022/04/09 00:40:55;;;;;;;;;;;;;;;5.49;85.88;99595.25;1794439;80;20213;-57
2022/04/09 00:44:00;;;;;;;;;;;;;;;5.49;85.86;99608.81;1794437;80;20209;-56
2022/04/09 00:47:08;;;;;;;;;;;;;;;5.50;85.87;99617.33;1711658;82;20194;-57
2022/04/09 00:50:15;;;;;;;;;;;;;;;5.51;85.75;99610.88;1712567;83;20566;-57
2022/04/09 00:53:20;;;;;;;;;;;;;;;5.49;85.60;99613.75;1712608;83;20194;-58
2022/04/09 00:56:26;;;;;;;;;;;;;;;5.47;85.38;99614.94;1712380;83;20480;-57
2022/04/09 00:59:32;;;;;;;;;;;;;;;5.44;85.20;99625.59;1712619;83;20210;-57
2022/04/09 01:02:37;;;;;;;;;;;;;;;5.40;84.95;99616.59;1712553;83;20230;-58
2022/04/09 01:05:43;;;;;;;;;;;;;;;5.30;84.49;99625.34;1712893;83;20601;-56
2022/04/09 01:08:48;;;;;;;;;;;;;;;5.24;84.60;99627.34;1712772;83;20178;-58
2022/04/09 01:11:53;;;;;;;;;;;;;;;5.21;84.67;99633.09;1712486;83;20308;-57
2022/04/09 01:14:57;;;;;;;;;;;;;;;5.19;84.67;99636.47;1712228;83;20202;-56
2022/04/09 01:18:03;;;;;;;;;;;;;;;5.17;84.64;99623.06;1712384;83;20265;-58
2022/04/09 01:21:11;;;;;;;;;;;;;;;5.12;84.49;99615.08;1713000;83;20558;-58
2022/04/09 01:24:17;;;;;;;;;;;;;;;5.07;84.54;99639.97;1714324;83;20221;-59
2022/04/09 01:27:22;;;;;;;;;;;;;;;5.03;84.63;99641.78;1712313;83;20209;-59
2022/04/09 01:30:26;;;;;;;;;;;;;;;5.00;84.68;99634.83;1712830;83;20195;-58
2022/04/09 01:33:32;;;;;;;;;;;;;;;4.99;84.75;99639.05;1712551;83;20198;-57
2022/04/09 01:36:37;;;;;;;;;;;;;;;4.97;84.78;99646.48;1712535;83;20199;-57
2022/04/09 01:39:46;;;;;;;;;;;;;;;4.96;84.89;99652.44;1712732;83;20186;-57
2022/04/09 01:42:52;;;;;;;;;;;;;;;4.94;84.90;99647.67;1712685;82;20226;-57
2022/04/09 01:45:58;;;;;;;;;;;;;;;4.91;84.88;99645.77;1711760;82;20202;-58
2022/04/09 01:49:04;;;;;;;;;;;;;;;4.82;84.55;99644.84;1734448;83;20254;-57
2022/04/09 01:52:11;;;;;;;;;;;;;;;4.74;84.62;99658.33;1734498;83;20523;-57
2022/04/09 01:55:18;;;;;;;;;;;;;;;4.73;85.06;99650.36;1734572;83;20243;-58
2022/04/09 01:58:22;;;;;;;;;;;;;;;4.71;85.06;99650.52;1734440;83;20191;-59
2022/04/09 02:01:27;;;;;;;;;;;;;;;4.69;85.18;99657.11;1734206;83;20190;-56
2022/04/09 02:04:33;;;;;;;;;;;;;;;4.63;85.08;99650.44;1732257;82;20190;-58
2022/04/09 02:07:38;;;;;;;;;;;;;;;4.59;85.31;99651.28;1734653;83;20551;-58
2022/04/09 02:10:43;;;;;;;;;;;;;;;4.63;85.69;99655.03;1734508;83;20218;-60
2022/04/09 02:13:48;;;;;;;;;;;;;;;4.63;85.87;99651.30;1734507;83;20210;-58
2022/04/09 02:16:54;;;;;;;;;;;;;;;4.65;85.95;99647.61;1734489;83;20202;-57
2022/04/09 02:19:59;;;;;;;;;;;;;;;4.66;85.97;99642.52;1734439;83;20214;-57
2022/04/09 02:23:04;;;;;;;;;;;;;;;4.67;85.94;99657.27;1734643;83;20257;-58
2022/04/09 02:26:10;;;;;;;;;;;;;;;4.67;85.90;99655.05;1734373;83;20283;-57
2022/04/09 02:29:18;;;;;;;;;;;;;;;4.66;85.71;99653.36;1734396;83;20199;-58
2022/04/09 02:32:23;;;;;;;;;;;;;;;4.60;85.65;99651.62;1734556;82;20198;-59
2022/04/09 02:35:29;;;;;;;;;;;;;;;4.57;85.61;99658.71;1734394;83;20519;-58
2022/04/09 02:38:38;;;;;;;;;;;;;;;4.52;85.53;99655.61;1734485;83;20194;-58
2022/04/09 02:41:44;;;;;;;;;;;;;;;4.49;85.42;99646.93;1734551;83;20206;-58
2022/04/09 02:44:50;;;;;;;;;;;;;;;4.42;85.22;99645.34;1734681;83;20257;-58
2022/04/09 02:47:56;;;;;;;;;;;;;;;4.36;85.25;99644.61;1732638;81;20294;-58
2022/04/09 02:51:02;;;;;;;;;;;;;;;4.29;85.02;99642.69;1734496;83;20198;-57
2022/04/09 02:54:15;;;;;;;;;;;;;;;4.22;85.18;99658.70;1734455;83;20543;-58
2022/04/09 02:57:17;;;;;;;;;;;;;;;4.21;85.44;99666.48;1734540;83;20199;-58
2022/04/09 03:00:23;;;;;;;;;;;;;;;4.18;85.45;99672.21;1734657;83;20535;-57
2022/04/09 03:03:29;;;;;;;;;;;;;;;4.13;85.27;99678.58;1734783;83;20202;-57
2022/04/09 03:06:33;;;;;;;;;;;;;;;4.07;85.03;99690.52;1734629;83;20179;-58
2022/04/09 03:09:39;;;;;;;;;;;;;;;4.05;85.06;99692.03;1713559;83;20222;-58
2022/04/09 03:12:45;;;;;;;;;;;;;;;4.05;85.06;99703.35;1713457;83;20225;-58
2022/04/09 03:15:51;;;;;;;;;;;;;;;4.02;84.96;99707.23;1711492;84;20268;-57
2022/04/09 03:18:56;;;;;;;;;;;;;;;3.99;84.78;99703.97;1711510;83;20204;-57
2022/04/09 03:22:01;;;;;;;;;;;;;;;3.95;84.58;99699.34;1711447;84;20185;-57
2022/04/09 03:25:08;;;;;;;;;;;;;;;3.92;84.47;99710.97;1711420;84;20208;-59
2022/04/09 03:28:14;;;;;;;;;;;;;;;3.88;84.30;99723.98;1711382;84;20521;-57
2022/04/09 03:31:20;;;;;;;;;;;;;;;3.81;83.92;99713.38;1711366;84;20193;-58
2022/04/09 03:34:26;;;;;;;;;;;;;;;3.75;83.84;99718.53;1711358;84;20232;-58
2022/04/09 03:37:32;;;;;;;;;;;;;;;3.75;84.01;99716.69;1711462;83;20195;-58
2022/04/09 03:40:41;;;;;;;;;;;;;;;3.73;83.95;99720.04;1711521;83;20224;-58
2022/04/09 03:43:49;;;;;;;;;;;;;;;3.73;84.06;99717.33;1711377;84;20545;-57
2022/04/09 03:46:58;;;;;;;;;;;;;;;3.77;84.29;99722.82;1711567;84;20192;-57
2022/04/09 03:50:03;;;;;;;;;;;;;;;3.88;84.85;99728.53;1715177;81;20278;-57
2022/04/09 03:53:08;;;;;;;;;;;;;;;3.99;85.05;99726.98;1705435;83;20215;-59
2022/04/09 03:56:16;;;;;;;;;;;;;;;4.09;85.21;99719.14;1721699;83;20225;-57
2022/04/09 03:59:20;;;;;;;;;;;;;;;4.19;85.29;99713.67;1721576;83;20219;-55
2022/04/09 04:02:26;;;;;;;;;;;;;;;4.29;85.27;99718.05;1721640;83;20268;-57
2022/04/09 04:05:32;;;;;;;;;;;;;;;4.37;85.33;99722.20;1721591;83;20223;-57
2022/04/09 04:08:37;;;;;;;;;;;;;;;4.45;85.33;99720.94;1721500;83;20196;-58
2022/04/09 04:11:42;;;;;;;;;;;;;;;4.54;85.31;99736.26;1721604;83;20630;-57
2022/04/09 04:14:49;;;;;;;;;;;;;;;4.67;85.66;99738.59;1721505;83;20207;-56
2022/04/09 04:17:56;;;;;;;;;;;;;;;4.82;85.91;99743.80;1721859;82;20199;-58
2022/04/09 04:21:02;;;;;;;;;;;;;;;4.99;86.02;99736.19;1721923;83;20575;-57
2022/04/09 04:24:10;;;;;;;;;;;;;;;5.15;85.94;99746.31;1721581;83;20524;-57
2022/04/09 04:27:20;;;;;;;;;;;;;;;5.32;85.98;99761.71;1703338;83;20223;-57
2022/04/09 04:30:26;;;;;;;;;;;;;;;5.52;85.97;99772.70;1697686;84;20204;-57
2022/04/09 04:33:32;;;;;;;;;;;;;;;5.72;85.87;99778.30;1703702;84;20196;-57
2022/04/09 04:36:37;;;;;;;;;;;;;;;5.92;85.62;99773.02;1703632;84;20239;-57
2022/04/09 04:39:44;;;;;;;;;;;;;;;6.10;85.47;99770.55;1706125;82;20277;-57
2022/04/09 04:42:49;;;;;;;;;;;;;;;6.29;85.25;99759.95;1735492;82;20214;-57
2022/04/09 04:45:55;;;;;;;;;;;;;;;6.47;85.15;99759.33;1711792;83;20312;-58
2022/04/09 04:49:03;;;;;;;;;;;;;;;6.68;85.01;99747.50;1709975;82;20257;-58
2022/04/09 04:52:09;;;;;;;;;;;;;;;6.86;84.80;99746.86;1721461;82;20244;-58
2022/04/09 04:55:14;;;;;;;;;;;;;;;7.05;84.63;99762.88;1733338;82;20206;-57
2022/04/09 04:58:19;;;;;;;;;;;;;;;7.24;84.21;99767.98;1706268;84;20248;-57
2022/04/09 05:01:26;;;;;;;;;;;;;;;7.38;83.87;99776.83;1712045;84;20207;-58
2022/04/09 05:04:32;;;;;;;;;;;;;;;7.54;83.58;99778.19;1712170;84;20213;-58
2022/04/09 05:07:52;;;;;;;;;;;;;;;7.71;83.13;99775.45;1705238;84;20213;-58
2022/04/09 05:10:57;;;;;;;;;;;;;;;7.88;82.65;99776.59;1681188;84;20213;-57
2022/04/09 05:14:03;;;;;;;;;;;;;;;8.08;82.21;99771.61;1710728;84;20196;-58
2022/04/09 05:17:12;;;;;;;;;;;;;;;8.29;81.65;99771.92;1710871;84;20220;-58
2022/04/09 05:20:19;;;;;;;;;;;;;;;8.47;81.09;99763.82;1710572;82;20216;-59
2022/04/09 05:23:25;;;;;;;;;;;;;;;8.68;80.59;99767.30;1710449;84;20255;-57
2022/04/09 05:26:29;;;;;;;;;;;;;;;8.90;80.24;99758.30;1710102;82;20623;-58
2022/04/09 05:29:36;;;;;;;;;;;;;;;9.15;79.90;99755.72;1710317;84;20216;-58
2022/04/09 05:32:43;;;;;;;;;;;;;;;9.41;79.40;99747.16;1710364;84;20212;-58
2022/04/09 05:35:47;;;;;;;;;;;;;;;9.62;78.81;99744.08;1710611;82;20200;-58
2022/04/09 05:38:53;;;;;;;;;;;;;;;9.83;78.18;99744.72;1715190;83;20182;-58
2022/04/09 05:42:01;;;;;;;;;;;;;;;9.99;77.67;99740.45;1735421;82;20222;-57
2022/04/09 05:45:07;;;;;;;;;;;;;;;10.13;77.12;99739.09;1735377;83;20208;-58
2022/04/09 05:48:15;;;;;;;;;;;;;;;10.26;76.37;99732.45;1735647;83;20195;-58
2022/04/09 05:51:24;;;;;;;;;;;;;;;10.38;75.77;99724.11;1731308;82;20234;-58
2022/04/09 05:54:31;;;;;;;;;;;;;;;10.50;74.93;99715.72;1730397;83;20250;-58
2022/04/09 05:57:40;;;;;;;;;;;;;;;10.60;74.19;99715.42;1730647;82;20526;-58
2022/04/09 06:00:46;;;;;;;;;;;;;;;10.71;73.23;99708.59;1730494;82;20221;-58
2022/04/09 06:03:53;;;;;;;;;;;;;;;10.86;72.83;99694.34;1730265;82;20210;-59
2022/04/09 06:06:57;;;;;;;;;;;;;;;10.99;72.08;99691.21;1713787;82;20541;-58
2022/04/09 06:10:06;;;;;;;;;;;;;;;11.14;71.11;99689.78;1731143;82;20219;-58
2022/04/09 06:13:13;;;;;;;;;;;;;;;11.25;69.82;99663.23;1730460;83;20195;-59
2022/04/09 06:16:21;;;;;;;;;;;;;;;11.41;69.46;99658.32;1731768;82;20226;-59
2022/04/09 06:19:29;;;;;;;;;;;;;;;11.55;68.78;99659.25;1730399;83;20234;-58
2022/04/09 06:22:36;;;;;;;;;;;;;;;11.67;67.99;99663.19;1730749;82;20245;-57
2022/04/09 06:25:42;;;;;;;;;;;;;;;11.76;66.93;99657.86;1730699;82;20202;-57
2022/04/09 06:28:53;;;;;;;;;;;;;;;11.82;66.36;99663.91;1731204;82;20535;-57
2022/04/09 06:31:58;;;;;;;;;;;;;;;11.92;66.08;99674.83;1730387;83;20507;-59
2022/04/09 06:34:59;;;;;;;;;;;;;;;12.01;65.30;99674.16;1730970;82;20554;-57
2022/04/09 06:37:53;;;;;;;;;;;;;;;12.16;65.21;99682.26;1730873;82;20227;-58
2022/04/09 06:40:39;;;;;;;;;;;;;;;12.27;64.38;99685.28;1730083;83;20206;-56
2022/04/09 06:43:33;;;;;;;;;;;;;;;12.39;63.32;99687.75;1729932;83;20222;-56
2022/04/09 06:46:43;;;;;;;;;;;;;;;12.44;62.69;99687.99;1729782;83;20559;-55
2022/04/09 06:49:53;;;;;;;;;;;;;;;12.48;62.83;99688.44;1648200;87;20214;-55
2022/04/09 06:52:57;;;;;;;;;;;;;;;12.53;62.75;99692.77;1681789;83;20254;-56
2022/04/09 06:56:05;;;;;;;;;;;;;;;12.58;62.83;99702.09;1681664;85;20226;-58
2022/04/09 06:59:10;;;;;;;;;;;;;;;12.67;62.12;99692.61;1684377;85;20290;-56
2022/04/09 07:02:16;;;;;;;;;;;;;;;12.77;62.10;99697.20;1681369;85;20214;-56
2022/04/09 07:05:22;;;;;;;;;;;;;;;12.88;62.21;99699.34;1681154;85;20242;-56
2022/04/09 07:08:28;;;;;;;;;;;;;;;13.03;62.60;99693.16;1689510;84;20212;-57
2022/04/09 07:11:32;;;;;;;;;;;;;;;13.23;62.83;99688.56;1709754;84;20216;-56
2022/04/09 07:14:38;;;;;;;;;;;;;;;13.44;62.07;99696.63;1710326;84;20272;-57
2022/04/09 07:17:45;;;;;;;;;;;;;;;13.58;60.32;99691.09;1710518;84;20216;-57
2022/04/09 07:20:50;;;;;;;;;;;;;;;13.79;59.16;99688.13;1675519;85;20192;-56
2022/04/09 07:23:55;;;;;;;;;;;;;;;13.98;57.43;99694.14;1674854;86;20243;-56
2022/04/09 07:27:00;;;;;;;;;;;;;;;14.10;56.71;99698.77;1675371;84;20234;-56
2022/04/09 07:30:05;;;;;;;;;;;;;;;14.27;55.94;99686.81;1710571;82;20210;-56
2022/04/09 07:33:09;;;;;;;;;;;;;;;14.39;55.13;99680.93;1710396;84;20587;-57
2022/04/09 07:36:15;;;;;;;;;;;;;;;14.53;54.91;99677.06;1719548;82;20214;-58
2022/04/09 07:39:21;;;;;;;;;;;;;;;14.67;54.97;99666.28;1734047;83;20218;-59
2022/04/09 07:42:29;;;;;;;;;;;;;;;14.75;53.57;99657.77;1733954;83;20214;-59
2022/04/09 07:45:34;;;;;;;;;;;;;;;14.77;53.75;99663.91;1733985;83;20301;-60
2022/04/09 07:48:39;;;;;;;;;;;;;;;14.95;53.05;99651.08;1734443;82;20258;-60
2022/04/09 07:51:44;;;;;;;;;;;;;;;15.12;52.41;99655.54;1734349;83;20213;-60
2022/04/09 07:54:51;;;;;;;;;;;;;;;15.21;50.93;99650.58;1726644;81;20214;-57
2022/04/09 07:57:58;;;;;;;;;;;;;;;15.24;49.60;99647.41;1700740;84;20212;-58
2022/04/09 08:01:05;;;;;;;;;;;;;;;15.28;49.46;99646.73;1701314;83;20878;-58
2022/04/09 08:04:12;;;;;;;;;;;;;;;15.37;49.55;99652.27;1683745;85;20579;-59
2022/04/09 08:07:17;;;;;;;;;;;;;;;15.40;48.29;99639.44;1686616;84;20204;-58
2022/04/09 08:10:22;;;;;;;;;;;;;;;15.43;47.11;99646.44;1705518;84;20176;-58
2022/04/09 08:13:28;;;;;;;;;;;;;;;15.43;46.54;99634.84;1695871;84;20204;-59
2022/04/09 08:16:34;;;;;;;;;;;;;;;15.53;46.01;99632.44;1707390;84;20279;-59
2022/04/09 08:19:40;;;;;;;;;;;;;;;15.66;46.30;99625.95;1677445;85;20264;-58
2022/04/09 08:22:45;;;;;;;;;;;;;;;15.81;46.00;99621.75;1707097;84;20205;-58
2022/04/09 08:25:48;;;;;;;;;;;;;;;15.95;46.05;99615.02;1695738;84;20222;-58
2022/04/09 08:28:56;;;;;;;;;;;;;;;15.97;44.52;99617.55;1704087;84;20691;-58
2022/04/09 08:32:01;;;;;;;;;;;;;;;16.01;45.36;99619.64;1709753;83;20212;-59
2022/04/09 08:35:06;;;;;;;;;;;;;;;16.11;45.46;99614.97;1707477;83;20644;-58
2022/04/09 08:38:12;;;;;;;;;;;;;;;16.07;44.44;99607.67;1704908;84;20607;-59
2022/04/09 08:41:17;;;;;;;;;;;;;;;16.04;44.54;99609.52;1686354;85;20224;-58
2022/04/09 08:44:23;;;;;;;;;;;;;;;16.13;44.82;99616.41;1743235;82;20224;-58
2022/04/09 08:47:28;;;;;;;;;;;;;;;16.27;44.95;99608.27;1720268;82;20461;-58
2022/04/09 08:50:31;;;;;;;;;;;;;;;16.35;44.53;99614.86;1712655;82;20512;-58
2022/04/09 08:53:36;;;;;;;;;;;;;;;16.52;45.09;99602.69;1711959;83;20258;-58
2022/04/09 08:56:41;;;;;;;;;;;;;;;16.66;45.04;99601.95;1733735;83;20202;-58
2022/04/09 08:59:45;;;;;;;;;;;;;;;16.81;45.28;99601.01;1727139;82;20242;-58
2022/04/09 09:03:01;;;;;;;;;;;;;;;16.92;44.84;99596.87;1676586;85;20212;-58
2022/04/09 09:06:09;;;;;;;;;;;;;;;16.94;44.15;99593.88;1728137;82;20835;-58
2022/04/09 09:09:14;;;;;;;;;;;;;;;16.94;43.46;99593.88;1735958;83;20249;-59
2022/04/09 09:12:21;;;;;;;;;;;;;;;16.99;43.09;99592.10;1690234;84;20588;-59
2022/04/09 09:15:29;;;;;;;;;;;;;;;17.11;42.47;99590.76;1706083;83;20217;-57
2022/04/09 09:18:32;;;;;;;;;;;;;;;17.25;42.24;99587.52;1702697;84;20209;-58
2022/04/09 09:21:29;;;;;;;;;;;;;;;17.30;41.90;99586.27;1706816;82;20236;-58
2022/04/09 09:24:19;;;;;;;;;;;;;;;17.38;41.15;99600.28;1709332;82;20537;-58
2022/04/09 09:27:10;;;;;;;;;;;;;;;17.44;38.96;99588.28;1709180;84;20220;-58
2022/04/09 09:30:19;;;;;;;;;;;;;;;17.51;38.66;99593.17;1707049;84;20565;-58
2022/04/09 09:33:29;;;;;;;;;;;;;;;17.60;38.09;99585.66;1701549;82;20232;-60
2022/04/09 09:36:49;;;;;;;;;;;;;;;17.67;37.61;99578.09;1724060;82;20217;-58
2022/04/09 09:40:03;;;;;;;;;;;;;;;17.71;37.64;99571.54;1723176;82;20247;-58
2022/04/09 09:43:25;;;;;;;;;;;;;;;17.83;36.86;99568.20;1717833;83;20569;-58
2022/04/09 09:46:35;;;;;;;;;;;;;;;17.81;36.11;99562.06;1740779;82;20264;-58
2022/04/09 09:49:53;;;;;;;;;;;;;;;17.67;36.53;99548.17;1739086;82;20210;-58
2022/04/09 09:53:04;;;;;;;;;;;;;;;17.64;36.78;99551.43;1693289;84;20258;-58
2022/04/09 09:56:17;;;;;;;;;;;;;;;17.71;37.34;99547.44;1708814;81;20256;-58
2022/04/09 09:59:31;;;;;;;;;;;;;;;17.97;37.33;99546.63;1741656;82;20224;-60
2022/04/09 10:02:44;;;;;;;;;;;;;;;18.22;36.07;99542.47;1739828;82;20216;-59
2022/04/09 10:05:54;;;;;;;;;;;;;;;18.36;36.03;99543.86;1734159;82;20236;-59
2022/04/09 10:08:58;;;;;;;;;;;;;;;18.56;36.44;99525.45;1707693;84;20223;-59
2022/04/09 10:12:08;;;;;;;;;;;;;;;18.70;35.48;99517.97;1702079;84;20228;-58
2022/04/09 10:15:13;;;;;;;;;;;;;;;18.69;34.99;99507.13;1699838;84;20206;-59
2022/04/09 10:18:19;;;;;;;;;;;;;;;18.65;35.08;99519.78;1703504;84;20592;-58
2022/04/09 10:21:25;;;;;;;;;;;;;;;18.81;35.20;99508.73;1710007;84;20585;-58
2022/04/09 10:24:31;;;;;;;;;;;;;;;19.00;34.64;99514.34;1710427;84;20496;-58
2022/04/09 10:27:46;;;;;;;;;;;;;;;19.21;34.10;99508.05;1681082;84;20592;-59
2022/04/09 10:30:51;;;;;;;;;;;;;;;19.29;33.82;99495.72;1737629;82;20253;-57
2022/04/09 10:34:02;;;;;;;;;;;;;;;19.33;32.94;99494.66;1705570;84;20849;-58
2022/04/09 10:37:09;;;;;;;;;;;;;;;19.33;32.92;99499.11;1709972;83;20289;-58
2022/04/09 10:40:15;;;;;;;;;;;;;;;19.33;32.90;99491.89;1743073;82;20272;-57
2022/04/09 10:43:35;;;;;;;;;;;;;;;19.25;32.79;99493.95;1719641;83;20215;-58
2022/04/09 10:46:41;;;;;;;;;;;;;;;19.24;32.55;99493.67;1719978;83;20264;-57
2022/04/09 10:49:49;;;;;;;;;;;;;;;19.25;32.42;99492.56;1719736;82;20212;-57
2022/04/09 10:52:55;;;;;;;;;;;;;;;19.28;32.47;99479.59;1720878;83;20593;-57
2022/04/09 10:56:32;;;;;;;;;;;;;;;19.33;32.00;99476.63;1702249;81;20246;-57
2022/04/09 10:59:38;;;;;;;;;;;;;;;19.33;32.28;99478.02;1702480;84;20245;-58
2022/04/09 11:02:43;;;;;;;;;;;;;;;19.30;32.30;99476.03;1686969;84;20216;-59
2022/04/09 11:05:50;;;;;;;;;;;;;;;19.36;32.01;99487.22;1664937;86;20692;-59
2022/04/09 11:08:59;;;;;;;;;;;;;;;19.44;31.83;99482.63;1664939;86;20232;-58
2022/04/09 11:12:08;;;;;;;;;;;;;;;19.52;31.89;99480.80;1665054;85;20268;-58
2022/04/09 11:15:13;;;;;;;;;;;;;;;19.52;31.57;99489.13;1670100;83;20290;-58
2022/04/09 11:18:18;;;;;;;;;;;;;;;19.53;31.28;99475.53;1662581;85;20543;-58
2022/04/09 11:21:23;;;;;;;;;;;;;;;19.57;31.03;99464.22;1683039;85;20242;-60
2022/04/09 11:24:29;;;;;;;;;;;;;;;19.54;31.03;99454.98;1678900;83;20222;-57
2022/04/09 11:27:35;;;;;;;;;;;;;;;19.61;31.23;99452.34;1669111;84;20637;-57
2022/04/09 11:30:34;;;;;;;;;;;;;;;19.59;30.64;99449.51;1654620;87;20208;-56
2022/04/09 11:33:26;;;;;;;;;;;;;;;19.52;30.72;99450.26;1654797;87;20337;-57
2022/04/09 11:36:31;;;;;;;;;;;;;;;19.59;31.11;99439.79;1654777;87;20212;-58
2022/04/09 11:39:37;;;;;;;;;;;;;;;19.74;31.28;99437.23;1655149;87;20221;-58
2022/04/09 11:42:51;;;;;;;;;;;;;;;19.80;30.89;99437.05;1682561;85;20535;-58
2022/04/09 11:45:57;;;;;;;;;;;;;;;19.82;31.06;99429.27;1682454;85;20546;-58
2022/04/09 11:49:07;;;;;;;;;;;;;;;19.80;31.09;99430.10;1682469;85;20254;-58
2022/04/09 11:52:14;;;;;;;;;;;;;;;19.83;31.39;99434.28;1678090;85;20219;-58
2022/04/09 11:55:22;;;;;;;;;;;;;;;19.83;30.88;99429.58;1672135;85;20203;-58
2022/04/09 11:58:28;;;;;;;;;;;;;;;19.87;31.12;99427.95;1695008;82;20220;-59
2022/04/09 12:01:32;;;;;;;;;;;;;;;19.90;31.34;99426.61;1684949;84;20204;-58
2022/04/09 12:04:41;;;;;;;;;;;;;;;19.96;31.40;99422.79;1699271;84;20565;-59
2022/04/09 12:07:51;;;;;;;;;;;;;;;19.86;31.48;99416.56;1733150;83;20210;-58
2022/04/09 12:11:01;;;;;;;;;;;;;;;19.79;31.25;99415.91;1733113;83;20214;-58
2022/04/09 12:14:20;;;;;;;;;;;;;;;19.73;31.92;99410.53;1731037;82;20667;-57
2022/04/09 12:17:26;;;;;;;;;;;;;;;19.69;31.83;99394.97;1734295;83;20258;-58
2022/04/09 12:20:41;;;;;;;;;;;;;;;19.86;32.22;99392.95;1733982;83;20246;-58
2022/04/09 12:23:47;;;;;;;;;;;;;;;20.17;31.86;99393.59;1734050;83;20206;-58
2022/04/09 12:26:52;;;;;;;;;;;;;;;20.48;31.89;99375.28;1713301;83;20234;-58
2022/04/09 12:30:00;;;;;;;;;;;;;;;20.71;31.57;99377.16;1734572;83;20546;-58
2022/04/09 12:33:16;;;;;;;;;;;;;;;20.90;30.78;99368.41;1734309;83;20265;-58
2022/04/09 12:36:20;;;;;;;;;;;;;;;20.92;31.09;99353.11;1733972;83;20265;-57
2022/04/09 12:39:37;;;;;;;;;;;;;;;20.98;31.10;99350.67;1733902;83;20210;-57
2022/04/09 12:42:42;;;;;;;;;;;;;;;21.14;31.42;99348.27;1734172;83;20218;-58
2022/04/09 12:45:47;;;;;;;;;;;;;;;21.30;31.10;99336.13;1733925;82;20202;-58
2022/04/09 12:48:55;;;;;;;;;;;;;;;21.49;31.35;99329.52;1734456;83;20233;-58
2022/04/09 12:52:03;;;;;;;;;;;;;;;21.72;31.20;99313.16;1734461;83;20257;-58
2022/04/09 12:55:08;;;;;;;;;;;;;;;21.96;31.10;99307.99;1733998;82;20226;-58
2022/04/09 12:58:14;;;;;;;;;;;;;;;22.05;31.17;99301.60;1719648;82;20227;-58
2022/04/09 13:01:20;;;;;;;;;;;;;;;22.13;31.19;99285.72;1731185;82;20560;-58
2022/04/09 13:04:25;;;;;;;;;;;;;;;22.08;31.03;99280.14;1709216;84;20220;-59
2022/04/09 13:07:31;;;;;;;;;;;;;;;22.14;31.41;99272.60;1709998;84;20516;-59
2022/04/09 13:10:37;;;;;;;;;;;;;;;22.13;31.88;99275.97;1710216;84;20252;-58
2022/04/09 13:13:45;;;;;;;;;;;;;;;22.07;32.31;99279.84;1710166;84;20532;-59
2022/04/09 13:16:51;;;;;;;;;;;;;;;22.05;33.06;99270.09;1709902;84;20822;-60
2022/04/09 13:19:56;;;;;;;;;;;;;;;22.00;33.37;99260.33;1725457;82;20505;-59
2022/04/09 13:23:01;;;;;;;;;;;;;;;21.99;33.75;99254.48;1736056;82;20210;-58
2022/04/09 13:26:07;;;;;;;;;;;;;;;21.98;33.81;99249.45;1736598;81;20218;-59
2022/04/09 13:29:11;;;;;;;;;;;;;;;21.96;34.11;99250.28;1737835;82;20206;-58
2022/04/09 13:32:16;;;;;;;;;;;;;;;22.01;34.33;99248.05;1735876;82;20246;-58
2022/04/09 13:35:23;;;;;;;;;;;;;;;22.09;34.53;99245.56;1723922;82;20243;-57
2022/04/09 13:38:28;;;;;;;;;;;;;;;22.26;34.53;99244.45;1746089;82;20571;-59
2022/04/09 13:41:35;;;;;;;;;;;;;;;22.25;34.59;99237.22;1741364;82;20208;-58
2022/04/09 13:44:39;;;;;;;;;;;;;;;22.16;34.75;99239.17;1711011;84;20248;-57
2022/04/09 13:47:46;;;;;;;;;;;;;;;21.98;35.19;99229.95;1700315;84;20227;-58
2022/04/09 13:50:51;;;;;;;;;;;;;;;21.81;35.62;99236.89;1696352;84;20522;-58
2022/04/09 13:53:57;;;;;;;;;;;;;;;21.70;36.19;99236.56;1707498;84;20224;-59
2022/04/09 13:57:02;;;;;;;;;;;;;;;21.60;36.68;99237.92;1705836;83;20259;-59
2022/04/09 14:00:06;;;;;;;;;;;;;;;21.57;37.23;99229.57;1706052;82;20244;-58
2022/04/09 14:03:13;;;;;;;;;;;;;;;21.52;37.53;99229.55;1706555;83;20220;-58
2022/04/09 14:06:21;;;;;;;;;;;;;;;21.45;37.93;99222.58;1707490;83;20204;-59
2022/04/09 14:09:26;;;;;;;;;;;;;;;21.38;38.13;99220.59;1707106;84;20220;-58
2022/04/09 14:12:32;;;;;;;;;;;;;;;21.29;38.58;99218.08;1707172;83;20620;-58
2022/04/09 14:15:38;;;;;;;;;;;;;;;21.23;38.65;99213.03;1706774;84;20220;-58
2022/04/09 14:18:44;;;;;;;;;;;;;;;21.20;38.99;99211.38;1707233;83;20216;-58
2022/04/09 14:21:50;;;;;;;;;;;;;;;21.16;39.40;99213.01;1685839;85;20218;-58
2022/04/09 14:24:54;;;;;;;;;;;;;;;21.15;39.61;99205.23;1685648;85;20214;-58
2022/04/09 14:28:02;;;;;;;;;;;;;;;21.16;39.71;99209.68;1686275;85;20294;-58
2022/04/09 14:31:07;;;;;;;;;;;;;;;21.16;39.39;99213.85;1686581;85;20226;-58
2022/04/09 14:34:13;;;;;;;;;;;;;;;21.15;39.49;99213.58;1685781;85;20179;-59
2022/04/09 14:37:18;;;;;;;;;;;;;;;21.14;39.51;99217.45;1686500;85;20304;-59
2022/04/09 14:40:24;;;;;;;;;;;;;;;21.12;39.58;99207.72;1712723;84;20231;-58
2022/04/09 14:43:31;;;;;;;;;;;;;;;21.08;39.73;99208.81;1714417;84;20216;-58
2022/04/09 14:46:36;;;;;;;;;;;;;;;21.07;39.50;99206.30;1713941;84;20219;-59
2022/04/09 14:49:41;;;;;;;;;;;;;;;21.06;39.13;99209.63;1713256;84;20239;-58
2022/04/09 14:52:49;;;;;;;;;;;;;;;21.07;39.08;99204.91;1708328;84;20216;-59
2022/04/09 14:55:55;;;;;;;;;;;;;;;21.07;38.92;99202.13;1708581;84;20565;-58
2022/04/09 14:59:00;;;;;;;;;;;;;;;21.05;38.89;99205.19;1707115;83;20268;-59
2022/04/09 15:02:06;;;;;;;;;;;;;;;21.04;38.48;99197.11;1694756;83;20214;-58
2022/04/09 15:05:12;;;;;;;;;;;;;;;21.04;38.64;99192.36;1683507;84;20249;-59
2022/04/09 15:08:17;;;;;;;;;;;;;;;21.02;38.44;99189.03;1701780;84;20609;-59
2022/04/09 15:11:23;;;;;;;;;;;;;;;21.03;38.59;99190.70;1701905;84;20213;-59
2022/04/09 15:14:30;;;;;;;;;;;;;;;21.02;38.60;99183.47;1678121;84;20555;-59
2022/04/09 15:17:35;;;;;;;;;;;;;;;21.04;38.43;99184.59;1703486;84;20248;-58
2022/04/09 15:20:45;;;;;;;;;;;;;;;21.04;38.48;99183.20;1654018;86;20187;-59
2022/04/09 15:23:51;;;;;;;;;;;;;;;21.03;38.31;99187.06;1653605;86;20192;-59
2022/04/09 15:26:58;;;;;;;;;;;;;;;21.01;38.39;99182.35;1684080;84;20298;-59
2022/04/09 15:30:05;;;;;;;;;;;;;;;20.99;38.36;99175.67;1682618;84;20277;-59
2022/04/09 15:33:11;;;;;;;;;;;;;;;20.95;38.32;99177.27;1682726;85;20226;-58
2022/04/09 15:36:18;;;;;;;;;;;;;;;20.92;38.49;99180.60;1685278;84;20201;-60
2022/04/09 15:39:24;;;;;;;;;;;;;;;20.88;38.45;99175.86;1683634;84;20242;-59
2022/04/09 15:42:30;;;;;;;;;;;;;;;20.84;38.53;99172.78;1653067;85;20210;-59
2022/04/09 15:45:36;;;;;;;;;;;;;;;20.79;38.55;99176.38;1682993;85;20557;-59
2022/04/09 15:48:42;;;;;;;;;;;;;;;20.76;38.38;99171.91;1682432;85;20578;-59
2022/04/09 15:51:46;;;;;;;;;;;;;;;20.73;38.13;99170.52;1678483;85;20591;-59
2022/04/09 15:54:52;;;;;;;;;;;;;;;20.69;38.14;99171.33;1681684;85;20214;-58
2022/04/09 15:57:59;;;;;;;;;;;;;;;20.65;37.88;99172.96;1683088;84;20258;-58
2022/04/09 16:01:04;;;;;;;;;;;;;;;20.61;37.71;99165.70;1695461;83;20234;-58
2022/04/09 16:04:08;;;;;;;;;;;;;;;20.57;37.82;99167.37;1700652;84;20549;-58
2022/04/09 16:07:13;;;;;;;;;;;;;;;20.51;37.83;99164.83;1714239;83;20205;-59
2022/04/09 16:10:18;;;;;;;;;;;;;;;20.46;37.95;99162.01;1713904;83;20214;-58
2022/04/09 16:13:26;;;;;;;;;;;;;;;20.40;37.98;99164.48;1714840;83;20297;-59